Portland, OR

12:38 PM PDT on August 30, 2015 (GMT -0700)
Portland - West Hills | | Change Station
CLOSE
Current Station
Personal Weather Station
Location: Portland, OR
Elevation: 820 ft
Nearby Weather Stations

Elev 820 ft 45.49 °N, 122.69 °W | Updated 25 seconds ago

Overcast
Overcast
63.8 °F
Feels Like 63.8 °F
N
6.0
Wind Variable Wind from SSW
Gusts 11.0 mph

Today
High -- | Low -- °F
--% Chance of Precip.
Yesterday
High -- | Low -- °F
Precip. -- in
6:29 AM 7:52 PM
Full, 98% visible
Pressure 29.99 in
Visibility 10.0 miles
Clouds Few 1500 ft
Mostly Cloudy 6500 ft
Mostly Cloudy 10000 ft
Dew Point 59 °F
Humidity 84%
Rainfall 0.51 in
Snow Depth Not available.
UV 4 out of 12
Pollen .50 out of 12
Air Quality Not available.
Flu Activity Not available.
METAR KPDX 301853Z 20014G20KT 10SM FEW015 BKN065 BKN100 19/14 A2999 RMK AO2 SLP156 T01890144 $
Pressure 29.99 in
Visibility 10.0 miles
Clouds Few 1500 ft
Mostly Cloudy 6500 ft
Mostly Cloudy 10000 ft
Dew Point 59 °F
Humidity 84%
Rainfall 0.51 in
Snow Depth Not available.
UV 4 out of 12
Pollen .50 out of 12
Air Quality Not available.
Flu Activity Not available.
METAR KPDX 301853Z 20014G20KT 10SM FEW015 BKN065 BKN100 19/14 A2999 RMK AO2 SLP156 T01890144 $

10-Day Weather Forecast

×

Almanac

Astronomy

Aug. 30, 2015 Rise Set
Actual Time
Civil Twilight
Nautical Twilight
Astronomical Twilight
Moon
Length of Visible Light
Length of Day
Tomorrow will be .
, % of the Moon is Illuminated

Today's Extremes

State Highs State Lows

Community

WunderPhotos

Upload Photos

1,851,040 photos uploaded!

WunderBlogs® & News

Nearby

Air Quality

  Air Quality AQ Index Pollutant
Not available.

Snow Depth

Station Depth Elevation

Earthquake Activity

City Distance Mag. Time & Date
Minimum magnitude displayed is 2.5.

Coastal Water Temperatures

Place Temperature

Stations

Nearby Weather Stations

Station Location Temp. Windchill Dew Point Humidity Wind Precip. Elev Updated Type